Weather reports worldwide

Advertisment
Parma, Italy (16086): temperature & dewpoint: 11.07.2019 01:00:00 - 17.07.2019 01:00:00 (CEST)Parma, Italy (16086): wind speed: 11.07.2019 01:00:00 - 17.07.2019 01:00:00 (CEST)Parma, Italy (16086): wind direction: 11.07.2019 01:00:00 - 17.07.2019 01:00:00 (CEST)Parma, Italy (16086): reduced air pressure: 11.07.2019 01:00:00 - 17.07.2019 01:00:00 (CEST)Parma, Italy (16086): precipitation: 11.07.2019 01:00:00 - 17.07.2019 01:00:00 (CEST)
Date & Time tt [°C] td [°C] ff [km/h] ff [kn] dd ppp [hPa] rr [mm]
17.07.2019 01:00:00 - - - - - - -
17.07.2019 00:00:00 - - - - - - -
16.07.2019 23:00:00 22,4 12,6 10 6 SSW 1013,9 0,0
16.07.2019 22:00:00 25,3 10,7 6 4 SE 1013,6 0,0
16.07.2019 21:00:00 26,5 9,8 4 2 ESE 1013,2 0,0
16.07.2019 20:00:00 28,4 8,1 3 2 S 1013,1 0,0
16.07.2019 19:00:00 28,2 9,0 8 5 SSE 1013,2 0,0
16.07.2019 18:00:00 28,9 9,6 6 4 SE 1013,3 0,0
16.07.2019 17:00:00 28,1 9,9 9 5 E 1013,8 0,0
16.07.2019 16:00:00 27,7 10,0 6 3 E 1014,1 0,0
16.07.2019 15:00:00 27,3 9,6 8 4 ESE 1014,5 0,0
16.07.2019 14:00:00 27,0 11,1 4 2 S 1014,9 0,0
16.07.2019 13:00:00 26,1 9,9 6 3 E 1015,3 0,0
16.07.2019 12:00:00 24,7 13,9 5 3 NNW 1015,5 0,0
16.07.2019 11:00:00 23,8 15,0 4 2 ESE 1015,4 0,0
16.07.2019 10:00:00 22,0 15,6 6 4 W 1015,4 0,0
16.07.2019 09:00:00 20,6 15,6 5 3 WNW 1015,4 0,0
16.07.2019 08:00:00 19,3 15,0 4 2 W 1015,1 0,0
16.07.2019 07:00:00 17,5 14,8 5 3 SW 1015,0 0,0
16.07.2019 06:00:00 16,8 14,8 6 3 WSW 1014,7 0,0
16.07.2019 05:00:00 17,0 14,8 5 3 W 1014,6 0,0
16.07.2019 04:00:00 17,5 14,9 6 4 WSW 1014,5 0,0
16.07.2019 03:00:00 18,0 15,3 6 4 SW 1014,7 0,0
16.07.2019 02:00:00 17,9 15,5 8 4 SW 1014,8 0,0
16.07.2019 01:00:00 18,0 15,6 7 4 SSW 1014,8 0,0
16.07.2019 00:00:00 18,1 15,5 7 4 SW 1014,6 0,0
15.07.2019 23:00:00 18,7 15,6 - - - 1014,1 0,0
15.07.2019 22:00:00 19,2 16,1 4 2 WNW 1013,7 0,0
15.07.2019 21:00:00 19,7 15,8 4 2 N 1013,1 0,0
15.07.2019 20:00:00 19,8 16,1 4 2 N 1012,5 0,0
15.07.2019 19:00:00 19,5 16,2 4 2 ENE 1012,3 0,0
15.07.2019 18:00:00 19,5 16,5 7 4 E 1012,2 0,0
15.07.2019 17:00:00 18,6 16,8 5 3 N 1012,4 0,4
15.07.2019 16:00:00 18,3 17,1 4 2 NE 1012,8 0,2
15.07.2019 15:00:00 17,2 16,9 5 3 SE 1012,4 0,6
15.07.2019 14:00:00 16,7 16,4 13 7 E 1012,8 2,6
15.07.2019 13:00:00 16,8 16,8 14 8 NE 1012,1 10,4
15.07.2019 12:00:00 16,4 16,1 16 9 NNE 1011,4 18,2
15.07.2019 11:00:00 17,3 15,6 16 9 NNE 1010,9 2,0
15.07.2019 10:00:00 18,0 15,8 14 8 NNE 1010,6 0,0
15.07.2019 09:00:00 18,6 16,9 10 5 NNE 1010,5 0,2
15.07.2019 08:00:00 18,4 16,6 2 1 E 1010,1 1,0
15.07.2019 07:00:00 18,4 16,4 3 2 NNE 1009,8 0,4
15.07.2019 06:00:00 18,4 16,4 6 3 E 1009,7 1,2
15.07.2019 05:00:00 18,9 16,5 5 3 SSE 1010,3 0,8
15.07.2019 04:00:00 19,2 16,1 3 1 SSW 1010,3 0,6
15.07.2019 03:00:00 20,4 16,6 9 5 S 1010,6 0,2
15.07.2019 02:00:00 21,3 15,4 2 1 SW 1010,3 0,0
15.07.2019 01:00:00 22,1 15,0 6 3 SSW 1010,4 0,0
15.07.2019 00:00:00 22,9 14,7 5 3 SW 1010,7 0,0
14.07.2019 23:00:00 23,9 13,7 3 2 ESE 1010,3 0,0
14.07.2019 22:00:00 23,9 13,1 7 4 SE 1009,7 0,0
14.07.2019 21:00:00 24,4 13,3 6 3 E 1009,3 0,0
14.07.2019 20:00:00 25,6 12,4 8 5 SSE 1009,0 0,0
14.07.2019 19:00:00 26,4 11,7 12 6 S 1009,4 0,0
14.07.2019 18:00:00 26,1 14,9 9 5 SSW 1009,8 0,0
14.07.2019 17:00:00 28,3 10,5 10 5 SSE 1009,9 0,0
14.07.2019 16:00:00 28,5 9,2 10 6 ENE 1010,3 0,0
14.07.2019 15:00:00 28,8 10,0 11 6 ENE 1010,6 0,0
14.07.2019 14:00:00 28,4 10,6 12 6 ENE 1010,8 0,0
14.07.2019 13:00:00 27,1 12,7 9 5 ENE 1011,6 0,0
14.07.2019 12:00:00 26,0 14,8 6 4 ENE 1012,1 0,0
14.07.2019 11:00:00 24,3 14,4 8 5 NE 1012,5 0,0
14.07.2019 10:00:00 23,0 14,3 8 4 NNE 1012,3 0,0
14.07.2019 09:00:00 21,7 13,8 5 3 NE 1012,4 0,0
14.07.2019 08:00:00 20,0 13,0 2 1 NW 1012,3 0,0
14.07.2019 07:00:00 18,6 12,8 - - - 1012,5 -
14.07.2019 06:00:00 17,6 12,5 3 1 E 1012,4 0,0
14.07.2019 05:00:00 17,3 12,2 5 3 E 1012,5 0,0
14.07.2019 04:00:00 17,3 12,2 10 5 E 1012,9 0,0
14.07.2019 03:00:00 18,2 11,7 10 5 E 1013,0 0,0
14.07.2019 02:00:00 18,9 11,2 11 6 NNE 1013,0 0,0
14.07.2019 01:00:00 21,9 12,7 8 4 ENE 1012,8 0,0
14.07.2019 00:00:00 21,5 11,5 16 9 ESE 1013,0 0,0
13.07.2019 23:00:00 21,7 12,0 19 10 E 1012,8 0,0
13.07.2019 22:00:00 26,4 14,2 12 7 ENE 1010,9 0,0
13.07.2019 21:00:00 27,6 13,5 8 4 E 1009,9 0,0
13.07.2019 20:00:00 28,6 12,5 9 5 E 1009,2 0,0
13.07.2019 19:00:00 29,4 13,2 8 5 ENE 1009,2 0,0
13.07.2019 18:00:00 29,1 13,7 5 3 SE 1009,1 0,0
13.07.2019 17:00:00 29,5 14,1 8 4 NE 1009,3 0,0
13.07.2019 16:00:00 28,8 15,0 11 6 E 1009,7 0,0
13.07.2019 15:00:00 28,1 15,4 10 5 E 1009,9 0,0
13.07.2019 14:00:00 28,0 16,3 9 5 ENE 1010,4 0,0
13.07.2019 13:00:00 26,7 16,9 8 4 ESE 1010,8 0,0
13.07.2019 12:00:00 26,2 17,0 5 3 NE 1010,9 0,0
13.07.2019 11:00:00 24,1 16,9 8 5 ENE 1011,0 0,0
13.07.2019 10:00:00 22,8 16,4 10 5 E 1011,0 0,0
13.07.2019 09:00:00 22,4 16,4 8 4 NE 1010,8 0,0
13.07.2019 08:00:00 20,7 16,3 3 2 SW 1010,6 0,0
13.07.2019 07:00:00 20,6 16,0 3 1 W 1010,2 0,0
13.07.2019 06:00:00 19,9 16,1 3 2 N 1010,2 0,0
13.07.2019 05:00:00 19,9 16,1 3 2 E 1009,6 0,0
13.07.2019 04:00:00 19,8 16,1 6 3 ENE 1009,7 0,0
13.07.2019 03:00:00 20,2 16,0 10 5 E 1009,8 0,0
13.07.2019 02:00:00 20,9 16,1 10 5 ENE 1009,8 0,0
13.07.2019 01:00:00 22,0 16,7 8 4 ENE 1009,9 -
13.07.2019 00:00:00 22,4 16,9 9 5 ENE 1010,2 0,0
12.07.2019 23:00:00 23,3 16,3 8 4 ENE 1010,3 0,0
12.07.2019 22:00:00 23,8 15,3 11 6 ENE 1010,3 0,0
12.07.2019 21:00:00 27,8 15,5 12 7 ENE 1009,4 0,0
12.07.2019 20:00:00 29,5 14,5 12 7 E 1009,1 0,0
12.07.2019 19:00:00 31,7 12,0 6 4 NE 1009,0 0,0
12.07.2019 18:00:00 31,5 11,8 6 4 SSE 1008,9 0,0
12.07.2019 17:00:00 31,5 11,8 6 4 SE 1009,5 0,0
12.07.2019 16:00:00 31,0 11,4 5 3 WNW 1010,5 0,0
12.07.2019 15:00:00 29,4 14,0 6 3 N 1011,4 0,0
12.07.2019 14:00:00 28,3 14,2 8 5 NNW 1012,0 0,0
12.07.2019 13:00:00 27,8 14,1 6 4 NNW 1012,2 0,0
12.07.2019 12:00:00 26,4 16,0 6 3 NNE 1012,7 0,0
12.07.2019 11:00:00 24,8 16,0 5 3 NE 1013,1 0,0
12.07.2019 10:00:00 22,8 15,9 5 3 N 1013,5 0,0
12.07.2019 09:00:00 21,1 15,4 4 2 W 1013,8 0,0
12.07.2019 08:00:00 20,8 15,1 4 2 NNE 1013,6 0,0
12.07.2019 07:00:00 19,5 14,9 4 2 NE 1013,5 0,0
12.07.2019 06:00:00 19,4 14,9 5 3 ENE 1013,1 0,0
12.07.2019 05:00:00 20,0 14,6 7 4 E 1012,8 0,0
12.07.2019 04:00:00 20,4 14,5 8 4 E 1013,1 0,0
12.07.2019 03:00:00 20,5 15,5 7 4 NE 1013,0 0,0
12.07.2019 02:00:00 21,3 15,2 7 4 NNE 1013,1 0,0
12.07.2019 01:00:00 22,5 13,6 7 4 ENE 1013,0 0,0
12.07.2019 00:00:00 22,1 13,4 9 5 ESE 1013,1 0,0
11.07.2019 23:00:00 22,3 14,4 11 6 ENE 1012,9 0,0
11.07.2019 22:00:00 24,5 14,0 11 6 ENE 1012,8 0,0
11.07.2019 21:00:00 26,0 13,8 6 3 ENE 1011,8 0,0
11.07.2019 20:00:00 26,4 13,5 10 6 E 1011,5 0,0
11.07.2019 19:00:00 27,0 13,0 10 5 E 1011,6 0,0
11.07.2019 18:00:00 27,7 12,9 6 4 ENE 1011,8 0,0
11.07.2019 17:00:00 27,4 12,6 8 4 E 1012,2 0,0
11.07.2019 16:00:00 27,1 12,3 5 3 ENE 1012,8 0,0
11.07.2019 15:00:00 27,3 12,1 7 4 E 1013,1 0,0
11.07.2019 14:00:00 26,3 12,0 11 6 E 1013,3 0,0
11.07.2019 13:00:00 26,3 12,0 13 7 E 1014,0 0,0
11.07.2019 12:00:00 25,7 11,8 10 5 NE 1014,4 0,0
11.07.2019 11:00:00 24,5 13,4 12 7 E 1014,6 0,0
11.07.2019 10:00:00 22,3 14,9 7 4 ENE 1015,2 0,0
11.07.2019 09:00:00 20,9 14,3 8 4 E 1015,1 0,0
11.07.2019 08:00:00 19,0 15,5 8 4 ENE 1015,0 0,0
11.07.2019 07:00:00 18,5 15,4 4 2 E 1014,6 0,0
11.07.2019 06:00:00 19,0 15,1 4 2 ENE 1014,5 0,0
11.07.2019 05:00:00 19,4 15,5 4 2 SSE 1014,3 0,0
11.07.2019 04:00:00 19,4 15,5 6 3 ESE 1014,4 0,0
11.07.2019 03:00:00 20,0 15,8 3 2 E 1014,6 0,0
11.07.2019 02:00:00 21,0 15,3 3 1 ENE 1014,6 0,0
11.07.2019 01:00:00 21,5 14,6 2 1 E 1014,4 0,0

tt = temperature
td = dewpoint
ff = wind speed
dd = wind direction
ppp = reduced air pressure
rr = precipitation

Next stations